createdAt,value
2023-01-30T00:02:42.703Z,100955.88
2023-01-30T00:07:44.893Z,100933.00
2023-01-30T00:12:47.998Z,100918.25
2023-01-30T00:17:49.780Z,100905.19
2023-01-30T00:23:00.529Z,100878.28
2023-01-30T00:28:05.036Z,100867.84
2023-01-30T00:33:07.265Z,100850.41
2023-01-30T00:38:09.438Z,100822.41
2023-01-30T00:43:15.064Z,100804.94
2023-01-30T00:48:16.991Z,100772.66
2023-01-30T00:53:19.064Z,100743.91
2023-01-30T00:58:26.244Z,100743.91
2023-01-30T01:03:28.468Z,100728.09
2023-01-30T01:08:30.355Z,100721.00
2023-01-30T01:13:34.040Z,100716.66
2023-01-30T01:18:35.938Z,100698.41
2023-01-30T01:23:38.276Z,100663.69
2023-01-30T01:28:41.570Z,100668.09
2023-01-30T01:33:44.130Z,100658.69
2023-01-30T01:38:46.544Z,100660.53
2023-01-30T01:44:02.796Z,100671.81
2023-01-30T01:49:13.193Z,100672.03
2023-01-30T01:54:18.775Z,100674.78
2023-01-30T01:59:28.683Z,100649.56
2023-01-30T02:04:32.957Z,100620.84
2023-01-30T02:09:35.411Z,100605.16
2023-01-30T02:14:40.070Z,100579.97
2023-01-30T02:19:49.422Z,100561.56
2023-01-30T02:25:16.419Z,100540.56
2023-01-30T02:30:55.223Z,100533.59
2023-01-30T02:36:05.911Z,100534.50
2023-01-30T02:41:19.809Z,100522.34
2023-01-30T02:46:32.166Z,100509.16
2023-01-30T02:51:37.078Z,100509.06
2023-01-30T02:56:47.308Z,100454.13
2023-01-30T03:02:26.627Z,100468.22
2023-01-30T03:07:43.251Z,100446.34
2023-01-30T03:12:52.996Z,100451.69
2023-01-30T03:17:57.612Z,100439.72
2023-01-30T03:22:59.666Z,100432.91
2023-01-30T03:28:05.110Z,100416.38
2023-01-30T03:33:08.541Z,100399.84
2023-01-30T03:38:11.183Z,100398.97
2023-01-30T03:43:13.233Z,100385.00
2023-01-30T03:48:16.666Z,100379.94
2023-01-30T03:53:18.606Z,100361.66
2023-01-30T03:58:20.742Z,100362.56
2023-01-30T04:03:23.928Z,100338.22
2023-01-30T04:08:26.660Z,100328.72
2023-01-30T04:13:28.678Z,100322.81
2023-01-30T04:18:32.096Z,100307.19
2023-01-30T04:23:34.086Z,100321.34
2023-01-30T04:28:37.247Z,100298.75
2023-01-30T04:33:41.201Z,100297.88
2023-01-30T04:38:43.527Z,100318.00
2023-01-30T04:43:45.288Z,100300.53
2023-01-30T04:48:48.372Z,100280.47
2023-01-30T04:53:50.436Z,100269.09
2023-01-30T04:58:52.531Z,100275.94
2023-01-30T05:03:56.557Z,100261.00
2023-01-30T05:08:59.310Z,100250.41
2023-01-30T05:14:01.478Z,100247.75
2023-01-30T05:19:05.022Z,100242.38
2023-01-30T05:24:07.464Z,100242.31
2023-01-30T05:29:10.946Z,100230.09
2023-01-30T05:34:14.415Z,100220.56
2023-01-30T05:39:16.416Z,100200.53
2023-01-30T05:44:18.744Z,100194.44
2023-01-30T05:49:22.291Z,100196.16
2023-01-30T05:54:24.425Z,100182.31
2023-01-30T05:59:26.513Z,100183.22
2023-01-30T06:04:29.932Z,100168.41
2023-01-30T06:09:31.854Z,100160.63
2023-01-30T06:14:34.141Z,100154.63
2023-01-30T06:19:37.514Z,100164.25
2023-01-30T06:24:39.820Z,100160.91
2023-01-30T06:29:42.110Z,100144.44
2023-01-30T06:34:45.416Z,100143.69
2023-01-30T06:39:47.642Z,100137.44
2023-01-30T06:44:49.720Z,100171.66
2023-01-30T06:49:53.104Z,100148.25
2023-01-30T06:54:54.853Z,100157.88
2023-01-30T06:59:56.636Z,100164.84
2023-01-30T07:04:59.733Z,100139.59
2023-01-30T07:10:08.412Z,100141.31
2023-01-30T07:15:10.846Z,100148.31
2023-01-30T07:20:14.275Z,100149.19
2023-01-30T07:25:16.576Z,100151.81
2023-01-30T07:30:19.074Z,100125.63
2023-01-30T07:35:23.648Z,100144.03
2023-01-30T07:40:26.235Z,100134.47
2023-01-30T07:45:31.345Z,100139.75
2023-01-30T07:50:34.904Z,100138.19
2023-01-30T07:55:36.965Z,100135.72
2023-01-30T08:00:39.103Z,100127.97
2023-01-30T08:05:42.633Z,100141.16
2023-01-30T08:10:44.481Z,100128.13
2023-01-30T08:15:46.622Z,100130.88
2023-01-30T08:20:49.657Z,100126.72
2023-01-30T08:25:54.687Z,100135.63
2023-01-30T08:30:57.836Z,100133.97
2023-01-30T08:36:01.276Z,100127.81
2023-01-30T08:41:04.949Z,100104.22
2023-01-30T08:46:06.718Z,100116.56
2023-01-30T08:51:10.222Z,100125.38
2023-01-30T08:56:12.331Z,100128.03
2023-01-30T09:01:14.076Z,100125.41
2023-01-30T09:06:17.895Z,100122.78
2023-01-30T09:11:20.227Z,100125.44
2023-01-30T09:16:22.332Z,100112.28
2023-01-30T09:21:26.027Z,100121.97
2023-01-30T09:26:28.376Z,100130.72
2023-01-30T09:31:30.931Z,100141.25
2023-01-30T09:36:34.407Z,100148.25
2023-01-30T09:41:54.330Z,100141.25
2023-01-30T09:47:09.151Z,100149.09
2023-01-30T09:52:27.516Z,100148.22
2023-01-30T09:57:30.063Z,100157.00
2023-01-30T10:02:47.734Z,100149.94
2023-01-30T10:08:03.900Z,100148.25
2023-01-30T10:13:18.521Z,100147.38
2023-01-30T10:18:44.983Z,100137.53
2023-01-30T10:24:03.358Z,100131.47
2023-01-30T10:29:11.964Z,100139.31
2023-01-30T10:34:22.130Z,100131.94
2023-01-30T10:39:35.348Z,100121.16
2023-01-30T10:44:41.043Z,100109.44
2023-01-30T10:49:46.520Z,100112.69
2023-01-30T10:55:00.584Z,100116.81
2023-01-30T11:00:11.117Z,100111.91
2023-01-30T11:05:16.320Z,100094.41
2023-01-30T11:10:23.316Z,100098.09
2023-01-30T11:15:39.615Z,100092.00
2023-01-30T11:20:44.376Z,100091.88
2023-01-30T11:26:09.187Z,100091.81
2023-01-30T11:31:28.271Z,100068.88
2023-01-30T11:36:38.923Z,100051.44
2023-01-30T11:41:44.099Z,100040.84
2023-01-30T11:46:46.897Z,100048.38
2023-01-30T11:51:54.090Z,100027.91
2023-01-30T11:57:01.783Z,100026.28
2023-01-30T12:02:11.150Z,100020.38
2023-01-30T12:07:20.755Z,100015.88
2023-01-30T12:12:32.847Z,100015.13
2023-01-30T12:17:42.707Z,100009.88
2023-01-30T12:22:51.766Z,99999.88
2023-01-30T12:28:01.901Z,99985.59
2023-01-30T12:33:06.604Z,99989.06
2023-01-30T12:38:18.780Z,99971.03
2023-01-30T12:43:34.884Z,99995.84
2023-01-30T12:49:10.111Z,99995.09
2023-01-30T12:54:24.877Z,99983.78
2023-01-30T12:59:37.034Z,99973.00
2023-01-30T13:04:56.696Z,99970.66
2023-01-30T13:10:14.736Z,99970.19
2023-01-30T13:15:26.243Z,99982.66
2023-01-30T13:20:44.491Z,99972.13
2023-01-30T13:25:55.993Z,99952.75
2023-01-30T13:31:01.277Z,99952.72
2023-01-30T13:36:11.952Z,99947.44
2023-01-30T13:41:17.173Z,99931.66
2023-01-30T13:46:26.519Z,99926.47
2023-01-30T13:51:43.142Z,99934.41
2023-01-30T13:56:50.424Z,99931.00
2023-01-30T14:02:19.505Z,99939.91
2023-01-30T14:07:29.998Z,99942.69
2023-01-30T14:12:36.291Z,99947.94
2023-01-30T14:17:39.885Z,99959.38
2023-01-30T14:22:51.424Z,99981.56
2023-01-30T14:27:55.267Z,99997.47
2023-01-30T14:32:59.682Z,100044.81
2023-01-30T14:38:13.246Z,100066.66
2023-01-30T14:43:37.189Z,100078.03
2023-01-30T14:48:44.760Z,100083.25
2023-01-30T14:53:53.683Z,100078.03
2023-01-30T14:59:01.903Z,100078.06
2023-01-30T15:04:05.554Z,100095.59
2023-01-30T15:09:08.040Z,100107.88
2023-01-30T15:14:19.375Z,100107.03
2023-01-30T15:19:41.218Z,100111.41
2023-01-30T15:25:22.258Z,100120.19
2023-01-30T15:30:38.079Z,100137.69
2023-01-30T15:35:42.868Z,100122.81
2023-01-30T15:40:44.816Z,100114.03
2023-01-30T15:46:03.237Z,100128.88
2023-01-30T15:51:12.557Z,100132.41
2023-01-30T15:56:19.557Z,100141.19
2023-01-30T16:01:23.393Z,100134.16
2023-01-30T16:06:30.845Z,100150.81
2023-01-30T16:11:39.193Z,100165.72
2023-01-30T16:16:46.653Z,100197.28
2023-01-30T16:21:50.809Z,100188.34
2023-01-30T16:26:55.872Z,100185.69
2023-01-30T16:31:58.350Z,100203.22
2023-01-30T16:37:06.374Z,100199.75
2023-01-30T16:42:27.080Z,100226.00
2023-01-30T16:47:29.667Z,100238.25
2023-01-30T16:52:37.142Z,100234.78
2023-01-30T16:57:42.875Z,100229.50
2023-01-30T17:02:51.057Z,100236.50
2023-01-30T17:07:56.116Z,100268.88
2023-01-30T17:12:59.476Z,100277.66
2023-01-30T17:18:02.013Z,100293.38
2023-01-30T17:23:09.336Z,100310.00
2023-01-30T17:28:18.550Z,100313.59
2023-01-30T17:33:21.372Z,100321.50
2023-01-30T17:38:24.380Z,100348.66
2023-01-30T17:43:26.817Z,100351.25
2023-01-30T17:48:29.084Z,100354.81
2023-01-30T17:53:32.501Z,100370.63
2023-01-30T17:58:34.275Z,100367.19
2023-01-30T18:03:36.023Z,100392.66
2023-01-30T18:08:39.446Z,100379.50
2023-01-30T18:13:42.206Z,100405.91
2023-01-30T18:18:43.938Z,100413.78
2023-01-30T18:23:47.488Z,100434.88
2023-01-30T18:28:49.610Z,100441.97
2023-01-30T18:33:52.709Z,100454.25
2023-01-30T18:38:55.874Z,100470.06
2023-01-30T18:43:58.727Z,100473.69
2023-01-30T18:49:00.890Z,100479.84
2023-01-30T18:54:04.457Z,100485.16
2023-01-30T18:59:07.635Z,100507.94
2023-01-30T19:04:11.215Z,100510.59
2023-01-30T19:09:15.657Z,100529.03
2023-01-30T19:14:17.695Z,100524.59
2023-01-30T19:19:19.446Z,100550.03
2023-01-30T19:24:22.481Z,100553.59
2023-01-30T19:29:24.139Z,100554.53
2023-01-30T19:34:25.895Z,100579.97
2023-01-30T19:39:29.028Z,100588.72
2023-01-30T19:44:30.823Z,100600.00
2023-01-30T19:49:35.719Z,100590.41
2023-01-30T19:54:39.155Z,100601.72
2023-01-30T19:59:41.347Z,100625.44
2023-01-30T20:04:43.077Z,100631.56
2023-01-30T20:09:46.423Z,100635.94
2023-01-30T20:14:48.771Z,100626.28
2023-01-30T20:19:51.324Z,100628.94
2023-01-30T20:24:54.439Z,100648.25
2023-01-30T20:29:56.625Z,100663.91
2023-01-30T20:34:58.380Z,100665.56
2023-01-30T20:40:02.296Z,100663.78
2023-01-30T20:45:05.765Z,100673.44
2023-01-30T20:50:09.167Z,100683.78
2023-01-30T20:55:12.871Z,100708.34
2023-01-30T21:00:15.133Z,100713.69
2023-01-30T21:05:17.798Z,100752.19
2023-01-30T21:10:21.398Z,100745.00
2023-01-30T21:15:23.196Z,100733.50
2023-01-30T21:20:24.915Z,100751.72
2023-01-30T21:25:28.074Z,100768.19
2023-01-30T21:30:29.843Z,100780.25
2023-01-30T21:35:32.383Z,100789.72
2023-01-30T21:40:35.513Z,100786.94
2023-01-30T21:45:37.795Z,100793.81
2023-01-30T21:50:40.321Z,100800.66
2023-01-30T21:55:43.447Z,100802.28
2023-01-30T22:00:45.732Z,100807.59
2023-01-30T22:05:47.457Z,100810.03
2023-01-30T22:10:50.976Z,100826.75
2023-01-30T22:15:52.687Z,100835.47
2023-01-30T22:20:54.430Z,100839.81
2023-01-30T22:25:57.760Z,100844.13
2023-01-30T22:31:05.338Z,100860.75
2023-01-30T22:36:08.074Z,100851.16
2023-01-30T22:41:14.430Z,100861.50
2023-01-30T22:46:18.454Z,100873.84
2023-01-30T22:51:22.681Z,100876.69
2023-01-30T22:56:28.547Z,100883.69
2023-01-30T23:01:32.460Z,100876.66
2023-01-30T23:06:34.905Z,100868.91
2023-01-30T23:11:40.931Z,100874.06
2023-01-30T23:16:45.062Z,100877.63
2023-01-30T23:21:47.503Z,100890.63
2023-01-30T23:26:52.055Z,100897.75
2023-01-30T23:31:54.170Z,100907.50
2023-01-30T23:36:56.451Z,100912.56
2023-01-30T23:42:00.039Z,100914.44
2023-01-30T23:47:02.393Z,100917.78
2023-01-30T23:52:04.847Z,100915.06
2023-01-30T23:57:08.351Z,100920.78
